.
WxDataArchive / Data Records for 2012-02-11
2012-02-10 February 2012 2012-02-12

Data Records for Saturday, 11 February 2012

Time	Temp	Chill	HIndex	Humid	Dewpt	 Wind 	HiWind	WindDir	Rain 	Barom 
-----	----	-----	------	-----	-----	------	------	-------	-----	----- 
00:00	19.9	19.9	19.9	85	16.1	1	3	270	0.00	29.958 
00:05	19.7	19.7	19.7	85	15.9	1	4	248	0.00	29.958 
00:10	19.2	19.2	19.2	84	15.2	2	5	315	0.00	29.958 
00:15	18.9	18.9	18.9	83	14.6	1	4	270	0.00	29.973 
00:20	18.4	18.4	18.4	82	13.8	2	5	270	0.00	29.973 
00:25	18.1	18.1	18.1	81	13.3	1	3	270	0.00	29.973 
00:30	18.0	18.0	18.0	81	13.2	2	5	292	0.00	29.986 
00:35	17.3	17.3	17.3	79	11.9	2	5	338	0.00	29.986 
00:40	16.9	16.9	16.9	79	11.5	1	4	338	0.00	29.986 
00:45	16.2	16.2	16.2	77	10.3	2	5	338	0.00	30.001 
00:50	15.9	15.9	15.9	77	10.0	2	6	270	0.00	30.001 
00:55	15.4	15.4	15.4	77	9.5	2	4	292	0.00	30.001 
01:00	15.2	15.2	15.2	77	9.3	1	4	338	0.00	30.009 
01:05	15.1	15.1	15.1	77	9.2	1	4	315	0.00	30.009 
01:10	15.1	15.1	15.1	77	9.2	1	4	338	0.00	30.009 
01:15	15.1	15.1	15.1	77	9.2	0	4	292	0.00	30.017 
01:20	14.9	14.9	14.9	77	9.0	2	5	338	0.00	30.017 
01:25	14.9	14.9	14.9	76	8.7	1	7	315	0.00	30.017 
01:30	14.9	14.9	14.9	76	8.7	0	3	315	0.00	30.023 
01:35	14.9	14.9	14.9	76	8.7	1	5	315	0.00	30.023 
01:40	14.9	14.9	14.9	76	8.7	1	5	338	0.00	30.023 
01:45	14.9	14.9	14.9	75	8.4	1	3	0	0.00	30.025 
01:50	14.9	14.9	14.9	76	8.7	1	3	0	0.00	30.025 
01:55	15.1	15.1	15.1	76	8.9	1	3	270	0.00	30.025 
02:00	15.1	15.1	15.1	77	9.2	1	4	292	0.00	30.036 
02:05	14.9	14.9	14.9	76	8.7	1	6	315	0.00	30.036 
02:10	14.3	14.3	14.3	75	7.9	2	9	292	0.00	30.036 
02:15	13.8	13.8	13.8	73	6.8	2	5	270	0.00	30.049 
02:20	13.5	13.5	13.5	73	6.5	1	3	315	0.00	30.049 
02:25	13.5	13.5	13.5	73	6.5	1	5	315	0.00	30.049 
02:30	13.3	13.3	13.3	73	6.3	1	4	338	0.00	30.058 
02:35	13.5	13.5	13.5	74	6.8	1	5	270	0.00	30.058 
02:40	13.5	13.5	13.5	74	6.8	1	5	270	0.00	30.058 
02:45	13.5	13.5	13.5	75	7.1	1	4	338	0.00	30.058 
02:50	13.3	13.3	13.3	74	6.6	1	5	338	0.00	30.058 
02:55	13.1	13.1	13.1	74	6.4	2	4	270	0.00	30.058 
03:00	12.9	12.9	12.9	74	6.2	2	5	338	0.00	30.067 
03:05	12.8	12.8	12.8	74	6.1	1	6	338	0.00	30.067 
03:10	12.8	12.8	12.8	74	6.1	1	6	0	0.00	30.067 
03:15	12.6	12.6	12.6	74	5.9	2	5	315	0.00	30.068 
03:20	12.6	12.6	12.6	74	5.9	1	3	315	0.00	30.068 
03:25	12.4	12.4	12.4	74	5.7	2	4	315	0.00	30.068 
03:30	12.3	12.3	12.3	74	5.6	1	5	315	0.00	30.074 
03:35	12.1	12.1	12.1	74	5.4	1	3	338	0.00	30.074 
03:40	12.1	12.1	12.1	74	5.4	1	4	338	0.00	30.074 
03:45	12.1	12.1	12.1	74	5.4	1	5	315	0.00	30.075 
03:50	11.9	11.9	11.9	74	5.2	1	4	292	0.00	30.075 
03:55	11.9	11.9	11.9	74	5.2	1	4	0	0.00	30.075 
04:00	11.9	11.9	11.9	74	5.2	1	4	292	0.00	30.077 
04:05	11.7	11.7	11.7	74	5.0	2	4	292	0.00	30.077 
04:10	11.7	11.7	11.7	74	5.0	1	3	0	0.00	30.077 
04:15	11.7	11.7	11.7	74	5.0	1	4	270	0.00	30.086 
04:20	11.6	11.6	11.6	73	4.7	2	5	338	0.00	30.086 
04:25	11.4	11.4	11.4	73	4.5	1	5	338	0.00	30.086 
04:30	11.2	11.2	11.2	73	4.3	1	6	270	0.00	30.087 
04:35	11.2	11.2	11.2	73	4.3	1	3	338	0.00	30.087 
04:40	11.1	11.1	11.1	72	3.9	1	4	270	0.00	30.087 
04:45	10.9	10.9	10.9	72	3.7	1	5	248	0.00	30.090 
04:50	10.7	10.7	10.7	72	3.5	1	5	338	0.00	30.090 
04:55	10.5	10.5	10.5	72	3.3	1	3	315	0.00	30.090 
05:00	10.4	10.4	10.4	72	3.2	1	3	292	0.00	30.102 
05:05	10.4	10.4	10.4	72	3.2	1	4	292	0.00	30.102 
05:10	10.2	10.2	10.2	72	3.0	1	3	315	0.00	30.102 
05:15	10.2	10.2	10.2	72	3.0	0	2	315	0.00	30.106 
05:20	10.0	10.0	10.0	72	2.8	1	3	292	0.00	30.106 
05:25	10.0	10.0	10.0	72	2.8	1	3	315	0.00	30.106 
05:30	10.0	10.0	10.0	72	2.8	1	3	0	0.00	30.107 
05:35	10.0	10.0	10.0	71	2.5	1	7	338	0.00	30.107 
05:40	10.0	10.0	10.0	71	2.5	1	5	270	0.00	30.107 
05:45	10.0	10.0	10.0	71	2.5	1	3	315	0.00	30.112 
05:50	10.0	10.0	10.0	70	2.2	1	6	270	0.00	30.112 
05:55	10.0	10.0	10.0	70	2.2	0	2	0	0.00	30.112 
06:00	10.0	10.0	10.0	69	1.9	1	3	270	0.00	30.121 
06:05	10.0	10.0	10.0	69	1.9	1	5	270	0.00	30.121 
06:10	10.0	10.0	10.0	69	1.9	1	4	270	0.00	30.121 
06:15	10.0	10.0	10.0	69	1.9	0	2	338	0.00	30.127 
06:20	9.9	9.9	9.9	68	1.5	1	2	270	0.00	30.127 
06:25	9.9	9.9	9.9	68	1.5	1	2	315	0.00	30.127 
06:30	9.9	9.9	9.9	68	1.5	0	2	270	0.00	30.139 
06:35	9.7	9.7	9.7	67	1.0	1	3	270	0.00	30.139 
06:40	9.7	9.7	9.7	67	1.0	0	3	315	0.00	30.139 
06:45	9.7	9.7	9.7	67	1.0	0	3	270	0.00	30.149 
06:50	9.5	9.5	9.5	66	0.5	0	2	270	0.00	30.149 
06:55	9.5	9.5	9.5	66	0.5	0	2	270	0.00	30.149 
07:00	9.5	9.5	9.5	66	0.5	0	3	270	0.00	30.155 
07:05	9.5	9.5	9.5	66	0.5	0	3	270	0.00	30.155 
07:10	9.5	9.5	9.5	66	0.5	0	2	270	0.00	30.155 
07:15	9.5	9.5	9.5	66	0.5	1	3	270	0.00	30.167 
07:20	9.5	9.5	9.5	65	0.1	0	3	0	0.00	30.167 
07:25	9.5	9.5	9.5	65	0.1	0	2	0	0.00	30.167 
07:30	9.5	9.5	9.5	65	0.1	0	4	292	0.00	30.175 
07:35	9.5	9.5	9.5	65	0.1	1	4	315	0.00	30.175 
07:40	9.5	9.5	9.5	65	0.1	1	2	270	0.00	30.175 
07:45	9.5	9.5	9.5	65	0.1	0	2	315	0.00	30.181 
07:50	9.5	9.5	9.5	65	0.1	0	1	315	0.00	30.181 
07:55	9.5	9.5	9.5	65	0.1	1	3	270	0.00	30.181 
08:00	9.5	9.5	9.5	65	0.1	0	3	270	0.00	30.192 
08:05	9.3	9.3	9.3	66	0.3	0	2	0	0.00	30.192 
08:10	9.3	9.3	9.3	66	0.3	0	1	0	0.00	30.192 
08:15	9.3	9.3	9.3	67	0.6	0	1	0	0.00	30.205 
08:20	9.7	9.7	9.7	67	1.0	0	2	0	0.00	30.205 
08:25	9.9	9.9	9.9	67	1.2	0	1	292	0.00	30.205 
08:30	10.2	10.2	10.2	67	1.5	0	1	292	0.00	30.217 
08:35	10.5	10.5	10.5	67	1.7	0	2	292	0.00	30.217 
08:40	10.7	10.7	10.7	67	1.9	0	2	338	0.00	30.217 
08:45	11.1	11.1	11.1	66	2.0	0	2	338	0.00	30.221 
08:50	11.2	11.2	11.2	66	2.1	1	2	248	0.00	30.221 
08:55	11.4	11.4	11.4	65	2.0	1	4	248	0.00	30.221 
09:00	11.6	11.6	11.6	65	2.1	1	2	292	0.00	30.224 
09:05	11.7	11.7	11.7	65	2.2	1	3	270	0.00	30.224 
09:10	11.9	11.9	11.9	64	2.1	1	2	292	0.00	30.224 
09:15	12.3	12.3	12.3	64	2.5	0	2	292	0.00	30.231 
09:20	12.4	12.4	12.4	64	2.6	1	2	315	0.00	30.231 
09:25	12.6	12.6	12.6	63	2.4	0	2	248	0.00	30.231 
09:30	12.9	12.9	12.9	63	2.7	0	2	338	0.00	30.232 
09:35	13.1	13.1	13.1	62	2.6	1	3	338	0.00	30.232 
09:40	13.3	13.3	13.3	62	2.7	1	2	315	0.00	30.232 
09:45	13.6	13.6	13.6	62	3.0	1	4	315	0.00	30.233 
09:50	13.8	13.8	13.8	62	3.2	1	3	292	0.00	30.233 
09:55	13.8	13.8	13.8	61	2.9	2	4	292	0.00	30.233 
10:00	13.8	13.8	13.8	61	2.9	2	5	292	0.00	30.235 
10:05	13.8	13.8	13.8	62	3.2	2	5	270	0.00	30.235 
10:10	14.0	14.0	14.0	62	3.4	2	4	292	0.00	30.235 
10:15	14.1	14.1	14.1	62	3.5	2	4	292	0.00	30.252 
10:20	14.3	14.3	14.3	62	3.7	2	4	315	0.00	30.252 
10:25	14.6	14.6	14.6	62	4.0	2	4	270	0.00	30.252 
10:30	14.8	14.8	14.8	62	4.2	2	5	270	0.00	30.248 
10:35	14.9	14.9	14.9	61	3.9	2	4	338	0.00	30.248 
10:40	15.1	15.1	15.1	60	3.7	2	5	315	0.00	30.248 
10:45	15.6	15.6	15.6	60	4.2	1	4	315	0.00	30.255 
10:50	15.7	15.7	15.7	60	4.3	2	9	270	0.00	30.255 
10:55	15.7	15.7	15.7	59	4.0	2	6	270	0.00	30.255 
11:00	16.1	16.1	16.1	59	4.3	1	6	22	0.00	30.256 
11:05	16.4	16.4	16.4	59	4.6	2	8	315	0.00	30.256 
11:10	16.2	16.2	16.2	58	4.1	3	10	292	0.00	30.256 
11:15	16.4	16.4	16.4	59	4.6	2	7	270	0.00	30.267 
11:20	16.7	16.7	16.7	59	4.9	2	4	270	0.00	30.267 
11:25	17.0	17.0	17.0	59	5.2	2	9	338	0.00	30.267 
11:30	17.0	17.0	17.0	59	5.2	3	7	270	0.00	30.268 
11:35	17.3	17.3	17.3	60	5.8	2	6	338	0.00	30.268 
11:40	17.7	17.7	17.7	59	5.8	2	5	270	0.00	30.268 
11:45	17.7	17.7	17.7	59	5.8	3	5	270	0.00	30.261 
11:50	18.1	18.1	18.1	60	6.6	1	3	248	0.00	30.261 
11:55	18.4	18.4	18.4	58	6.1	3	9	338	0.00	30.261 
12:00	18.3	18.3	18.3	58	6.0	3	9	292	0.00	30.265 
12:05	18.3	18.3	18.3	59	6.4	2	5	292	0.00	30.265 
12:10	18.6	18.6	18.6	59	6.7	2	7	270	0.00	30.265 
12:15	18.4	18.4	18.4	57	5.7	3	9	315	0.00	30.265 
12:20	18.4	18.4	18.4	57	5.7	2	7	338	0.00	30.265 
12:25	18.8	18.8	18.8	60	7.2	2	6	270	0.00	30.265 
12:30	18.9	12.9	18.9	59	7.0	4	13	315	0.00	30.259 
12:35	18.8	18.8	18.8	59	6.9	3	9	292	0.00	30.259 
12:40	19.1	19.1	19.1	59	7.2	2	7	270	0.00	30.259 
12:45	19.2	19.2	19.2	58	6.9	3	11	292	0.00	30.257 
12:50	19.1	19.1	19.1	58	6.8	3	11	292	0.00	30.257 
12:55	19.4	19.4	19.4	58	7.1	2	5	315	0.00	30.257 
13:00	19.7	19.7	19.7	59	7.7	2	5	270	0.00	30.256 
13:05	19.9	19.9	19.9	59	7.9	3	6	270	0.00	30.256 
13:10	19.9	19.9	19.9	58	7.5	3	7	315	0.00	30.256 
13:15	20.0	20.0	20.0	59	8.0	2	5	315	0.00	30.256 
13:20	19.9	19.9	19.9	58	7.5	3	6	315	0.00	30.256 
13:25	20.0	20.0	20.0	59	8.0	2	5	315	0.00	30.256 
13:30	20.2	20.2	20.2	59	8.2	3	5	270	0.00	30.255 
13:35	20.5	20.5	20.5	59	8.5	2	6	315	0.00	30.255 
13:40	21.1	21.1	21.1	58	8.7	3	7	315	0.00	30.255 
13:45	21.0	21.0	21.0	57	8.2	3	6	292	0.00	30.254 
13:50	20.6	20.6	20.6	58	8.2	3	6	270	0.00	30.254 
13:55	21.0	21.0	21.0	59	9.0	2	7	270	0.00	30.254 
14:00	21.0	21.0	21.0	58	8.6	3	7	292	0.00	30.252 
14:05	21.1	21.1	21.1	58	8.7	3	6	315	0.00	30.252 
14:10	21.3	21.3	21.3	58	8.9	3	7	315	0.00	30.252 
14:15	21.3	21.3	21.3	58	8.9	3	7	292	0.00	30.256 
14:20	21.4	21.4	21.4	58	8.9	3	7	292	0.00	30.256 
14:25	21.3	21.3	21.3	57	8.5	3	10	292	0.00	30.256 
14:30	21.3	21.3	21.3	59	9.2	2	10	270	0.00	30.257 
14:35	21.6	21.6	21.6	58	9.1	3	6	338	0.00	30.257 
14:40	21.8	21.8	21.8	59	9.7	2	5	270	0.00	30.257 
14:45	21.8	21.8	21.8	59	9.7	2	5	338	0.00	30.258 
14:50	22.1	22.1	22.1	60	10.4	2	7	270	0.00	30.258 
14:55	21.9	21.9	21.9	58	9.4	3	7	315	0.00	30.258 
15:00	21.8	21.8	21.8	59	9.7	3	7	315	0.00	30.264 
15:05	21.9	21.9	21.9	60	10.2	2	6	248	0.00	30.264 
15:10	21.9	21.9	21.9	61	10.5	2	7	315	0.00	30.264 
15:15	21.8	21.8	21.8	62	10.8	2	5	315	0.00	30.264 
15:20	21.6	21.6	21.6	63	11.0	2	4	270	0.00	30.264 
15:25	21.6	21.6	21.6	65	11.7	1	3	270	0.00	30.264 
15:30	21.4	21.4	21.4	67	12.2	2	4	270	0.00	30.271 
15:35	21.3	21.3	21.3	69	12.7	2	5	270	0.00	30.271 
15:40	21.4	21.4	21.4	71	13.5	1	4	248	0.00	30.271 
15:45	21.4	21.4	21.4	72	13.8	2	3	270	0.00	30.273 
15:50	21.4	21.4	21.4	71	13.5	2	4	292	0.00	30.273 
15:55	21.4	21.4	21.4	68	12.5	2	5	315	0.00	30.273 
16:00	21.4	21.4	21.4	67	12.2	2	7	338	0.00	30.275 
16:05	21.6	21.6	21.6	66	12.0	2	5	338	0.00	30.275 
16:10	21.6	21.6	21.6	65	11.7	2	9	270	0.00	30.275 
16:15	21.6	21.6	21.6	64	11.3	2	4	338	0.00	30.279 
16:20	21.8	21.8	21.8	65	11.9	2	4	248	0.00	30.279 
16:25	21.8	21.8	21.8	67	12.6	2	5	248	0.00	30.279 
16:30	21.4	21.4	21.4	69	12.8	3	5	270	0.00	30.283 
16:35	21.3	21.3	21.3	71	13.4	2	4	292	0.00	30.283 
16:40	21.1	21.1	21.1	72	13.5	2	5	270	0.00	30.283 
16:45	21.3	21.3	21.3	73	14.0	1	3	270	0.00	30.283 
16:50	21.3	21.3	21.3	73	14.0	1	3	270	0.00	30.283 
16:55	21.3	21.3	21.3	74	14.3	2	5	270	0.00	30.283 
17:00	21.3	21.3	21.3	73	14.0	3	5	270	0.00	30.287 
17:05	21.1	21.1	21.1	72	13.5	3	6	270	0.00	30.287 
17:10	21.1	21.1	21.1	71	13.2	3	5	270	0.00	30.287 
17:15	21.0	15.4	21.0	70	12.8	4	7	270	0.00	30.288 
17:20	21.0	21.0	21.0	69	12.5	3	6	270	0.00	30.288 
17:25	21.0	21.0	21.0	67	11.8	3	10	292	0.00	30.288 
17:30	20.8	15.1	20.8	68	11.9	4	10	315	0.00	30.292 
17:35	20.5	14.8	20.5	69	12.0	4	7	315	0.00	30.292 
17:40	20.2	13.2	20.2	68	11.4	5	9	292	0.00	30.292 
17:45	20.0	14.2	20.0	68	11.2	4	9	270	0.00	30.296 
17:50	19.9	19.9	19.9	68	11.1	3	6	270	0.00	30.296 
17:55	19.7	13.9	19.7	68	10.9	4	7	270	0.00	30.296 
18:00	19.4	19.4	19.4	68	10.6	3	7	270	0.00	30.303 
18:05	19.4	13.5	19.4	70	11.2	4	7	270	0.00	30.303 
18:10	19.1	19.1	19.1	71	11.3	3	5	270	0.00	30.303 
18:15	18.8	18.8	18.8	72	11.3	3	5	270	0.00	30.312 
18:20	18.4	12.4	18.4	72	10.9	4	9	270	0.00	30.312 
18:25	18.3	18.3	18.3	71	10.5	3	6	270	0.00	30.312 
18:30	18.1	18.1	18.1	72	10.6	3	7	292	0.00	30.318 
18:35	18.1	12.0	18.1	70	10.0	4	9	292	0.00	30.318 
18:40	18.1	18.1	18.1	70	10.0	3	4	248	0.00	30.318 
18:45	18.1	18.1	18.1	70	10.0	3	6	292	0.00	30.327 
18:50	18.0	18.0	18.0	70	9.9	3	6	270	0.00	30.327 
18:55	17.8	17.8	17.8	69	9.4	3	9	292	0.00	30.327 
19:00	17.5	11.3	17.5	68	8.8	4	6	270	0.00	30.336 
19:05	17.3	17.3	17.3	67	8.3	3	7	270	0.00	30.336 
19:10	17.3	17.3	17.3	66	7.9	3	7	292	0.00	30.336 
19:15	17.2	17.2	17.2	66	7.8	3	5	270	0.00	30.344 
19:20	17.0	17.0	17.0	66	7.6	2	6	270	0.00	30.344 
19:25	16.9	16.9	16.9	66	7.5	3	6	270	0.00	30.344 
19:30	16.7	16.7	16.7	65	7.0	3	6	292	0.00	30.349 
19:35	16.7	16.7	16.7	64	6.7	3	7	270	0.00	30.349 
19:40	16.5	16.5	16.5	64	6.5	3	5	270	0.00	30.349 
19:45	16.4	16.4	16.4	63	6.0	3	6	270	0.00	30.349 
19:50	16.4	16.4	16.4	63	6.0	2	7	292	0.00	30.349 
19:55	16.2	16.2	16.2	64	6.2	3	6	270	0.00	30.349 
20:00	16.2	16.2	16.2	64	6.2	2	5	270	0.00	30.346 
20:05	16.2	16.2	16.2	64	6.2	2	6	270	0.00	30.346 
20:10	16.1	16.1	16.1	65	6.4	3	5	270	0.00	30.346 
20:15	16.1	16.1	16.1	65	6.4	3	6	270	0.00	30.345 
20:20	16.1	16.1	16.1	65	6.4	3	7	292	0.00	30.345 
20:25	16.2	16.2	16.2	66	6.9	2	5	270	0.00	30.345 
20:30	16.2	16.2	16.2	66	6.9	3	5	270	0.00	30.347 
20:35	16.4	16.4	16.4	67	7.4	2	6	248	0.00	30.347 
20:40	16.4	16.4	16.4	67	7.4	3	6	270	0.00	30.347 
20:45	16.4	16.4	16.4	67	7.4	2	4	270	0.00	30.345 
20:50	16.4	16.4	16.4	67	7.4	2	5	270	0.00	30.345 
20:55	16.4	16.4	16.4	67	7.4	1	5	292	0.00	30.345 
21:00	16.4	16.4	16.4	66	7.1	2	4	338	0.00	30.345 
21:05	16.4	16.4	16.4	66	7.1	2	4	292	0.00	30.345 
21:10	16.5	16.5	16.5	65	6.8	3	6	270	0.00	30.345 
21:15	16.5	16.5	16.5	65	6.8	2	5	292	0.00	30.342 
21:20	16.5	16.5	16.5	65	6.8	2	5	248	0.00	30.342 
21:25	16.5	16.5	16.5	65	6.8	2	4	315	0.00	30.342 
21:30	16.7	16.7	16.7	65	7.0	2	8	315	0.00	30.341 
21:35	16.7	16.7	16.7	64	6.7	2	4	292	0.00	30.341 
21:40	16.7	16.7	16.7	64	6.7	2	4	270	0.00	30.341 
21:45	16.7	16.7	16.7	64	6.7	2	6	270	0.00	30.336 
21:50	16.7	16.7	16.7	65	7.0	1	3	270	0.00	30.336 
21:55	16.7	16.7	16.7	65	7.0	2	3	270	0.00	30.336 
22:00	16.7	16.7	16.7	65	7.0	1	4	270	0.00	30.334 
22:05	16.7	16.7	16.7	65	7.0	2	4	248	0.00	30.334 
22:10	16.7	16.7	16.7	65	7.0	1	3	270	0.00	30.334 
22:15	16.7	16.7	16.7	64	6.7	2	4	270	0.00	30.323 
22:20	16.9	16.9	16.9	64	6.9	1	3	270	0.00	30.323 
22:25	16.9	16.9	16.9	64	6.9	1	3	248	0.00	30.323 
22:30	16.7	16.7	16.7	64	6.7	1	3	248	0.00	30.321 
22:35	16.7	16.7	16.7	64	6.7	1	3	248	0.00	30.321 
22:40	16.7	16.7	16.7	64	6.7	1	3	248	0.00	30.321 
22:45	16.5	16.5	16.5	65	6.8	1	3	248	0.00	30.322 
22:50	16.5	16.5	16.5	64	6.5	1	3	248	0.00	30.322 
22:55	16.5	16.5	16.5	65	6.8	1	3	248	0.00	30.322 
23:00	16.5	16.5	16.5	65	6.8	1	3	248	0.00	30.321 
23:05	16.5	16.5	16.5	65	6.8	1	2	248	0.00	30.321 
23:10	16.5	16.5	16.5	65	6.8	1	3	248	0.00	30.321 
23:15	16.5	16.5	16.5	65	6.8	1	4	248	0.00	30.318 
23:20	16.5	16.5	16.5	64	6.5	2	4	248	0.00	30.318 
23:25	16.4	16.4	16.4	64	6.4	1	3	248	0.00	30.318 
23:30	16.2	16.2	16.2	64	6.2	1	4	248	0.00	30.307 
23:35	16.1	16.1	16.1	64	6.1	1	3	248	0.00	30.307 
23:40	15.9	15.9	15.9	64	5.9	2	6	248	0.00	30.307 
23:45	15.7	15.7	15.7	64	5.7	1	4	248	0.00	30.303 
23:50	15.6	15.6	15.6	64	5.6	1	4	248	0.00	30.303 
23:55	15.4	15.4	15.4	63	5.1	2	5	248	0.00	30.303 

CoCoRaHS
IN-AL-39
A2 Web Hosting
Creative Commons License
GoDaddy
search engine by freefind advanced

loaded 2018-11-16 00:49:11 • last modified 2010-11-18 10:43:29
Privacy PolicyDisclaimer
• wx.awcolley.com is powered by PmWiki v.2002016 •
• all content (unless otherwise noted) © 2018 A W Colley